sensor_id;sensor_type;location;lat;lon;timestamp;P1;durP1;ratioP1;P2;durP2;ratioP2
68858;SDS011;55864;49.238;8.092;2023-07-16T00:01:08;5.40;;;1.85;;
68858;SDS011;55864;49.238;8.092;2023-07-16T00:03:08;4.07;;;1.70;;
68858;SDS011;55864;49.238;8.092;2023-07-16T00:05:09;5.45;;;1.50;;
68858;SDS011;55864;49.238;8.092;2023-07-16T00:07:09;3.90;;;1.50;;
68858;SDS011;55864;49.238;8.092;2023-07-16T00:09:10;7.15;;;1.70;;
68858;SDS011;55864;49.238;8.092;2023-07-16T00:11:10;5.43;;;1.67;;
68858;SDS011;55864;49.238;8.092;2023-07-16T00:13:11;7.53;;;1.77;;
68858;SDS011;55864;49.238;8.092;2023-07-16T00:15:11;5.00;;;1.80;;
68858;SDS011;55864;49.238;8.092;2023-07-16T00:17:13;5.88;;;1.88;;
68858;SDS011;55864;49.238;8.092;2023-07-16T00:19:14;4.47;;;1.63;;
68858;SDS011;55864;49.238;8.092;2023-07-16T00:21:15;4.38;;;1.70;;
68858;SDS011;55864;49.238;8.092;2023-07-16T00:23:15;4.28;;;1.70;;
68858;SDS011;55864;49.238;8.092;2023-07-16T00:25:16;4.95;;;1.92;;
68858;SDS011;55864;49.238;8.092;2023-07-16T00:27:16;4.82;;;1.90;;
68858;SDS011;55864;49.238;8.092;2023-07-16T00:29:17;4.80;;;1.65;;
68858;SDS011;55864;49.238;8.092;2023-07-16T00:31:17;4.78;;;1.70;;
68858;SDS011;55864;49.238;8.092;2023-07-16T00:33:19;4.93;;;1.92;;
68858;SDS011;55864;49.238;8.092;2023-07-16T00:35:20;4.05;;;1.70;;
68858;SDS011;55864;49.238;8.092;2023-07-16T00:37:20;7.05;;;1.75;;
68858;SDS011;55864;49.238;8.092;2023-07-16T00:39:21;5.85;;;1.60;;
68858;SDS011;55864;49.238;8.092;2023-07-16T00:41:21;5.28;;;1.80;;
68858;SDS011;55864;49.238;8.092;2023-07-16T00:43:22;5.00;;;1.67;;
68858;SDS011;55864;49.238;8.092;2023-07-16T00:45:22;6.40;;;1.67;;
68858;SDS011;55864;49.238;8.092;2023-07-16T00:47:23;5.00;;;1.40;;
68858;SDS011;55864;49.238;8.092;2023-07-16T00:49:25;5.57;;;1.70;;
68858;SDS011;55864;49.238;8.092;2023-07-16T00:51:27;4.50;;;1.52;;
68858;SDS011;55864;49.238;8.092;2023-07-16T00:53:28;6.10;;;1.80;;
68858;SDS011;55864;49.238;8.092;2023-07-16T00:55:29;6.65;;;1.90;;
68858;SDS011;55864;49.238;8.092;2023-07-16T00:57:30;6.38;;;1.98;;
68858;SDS011;55864;49.238;8.092;2023-07-16T00:59:31;7.20;;;2.22;;
68858;SDS011;55864;49.238;8.092;2023-07-16T01:01:32;6.20;;;1.92;;
68858;SDS011;55864;49.238;8.092;2023-07-16T01:03:33;4.93;;;1.75;;
68858;SDS011;55864;49.238;8.092;2023-07-16T01:05:36;6.75;;;1.85;;
68858;SDS011;55864;49.238;8.092;2023-07-16T01:07:45;5.85;;;1.90;;
68858;SDS011;55864;49.238;8.092;2023-07-16T01:09:54;5.43;;;1.77;;
68858;SDS011;55864;49.238;8.092;2023-07-16T01:12:10;4.82;;;1.60;;
68858;SDS011;55864;49.238;8.092;2023-07-16T01:14:12;4.75;;;1.90;;
68858;SDS011;55864;49.238;8.092;2023-07-16T01:16:20;7.18;;;1.85;;
68858;SDS011;55864;49.238;8.092;2023-07-16T01:18:20;4.45;;;1.70;;
68858;SDS011;55864;49.238;8.092;2023-07-16T01:20:21;6.20;;;1.90;;
68858;SDS011;55864;49.238;8.092;2023-07-16T01:22:35;6.22;;;1.90;;
68858;SDS011;55864;49.238;8.092;2023-07-16T01:24:54;6.68;;;1.80;;
68858;SDS011;55864;49.238;8.092;2023-07-16T01:27:11;4.40;;;1.67;;
68858;SDS011;55864;49.238;8.092;2023-07-16T01:29:28;6.70;;;1.80;;
68858;SDS011;55864;49.238;8.092;2023-07-16T01:31:31;6.05;;;1.80;;
68858;SDS011;55864;49.238;8.092;2023-07-16T01:33:33;5.70;;;1.75;;
68858;SDS011;55864;49.238;8.092;2023-07-16T01:35:34;4.60;;;1.90;;
68858;SDS011;55864;49.238;8.092;2023-07-16T01:37:35;5.85;;;1.65;;
68858;SDS011;55864;49.238;8.092;2023-07-16T01:39:36;6.07;;;1.77;;
68858;SDS011;55864;49.238;8.092;2023-07-16T01:41:37;6.22;;;1.98;;
68858;SDS011;55864;49.238;8.092;2023-07-16T01:43:38;6.95;;;1.92;;
68858;SDS011;55864;49.238;8.092;2023-07-16T01:45:40;7.15;;;2.00;;
68858;SDS011;55864;49.238;8.092;2023-07-16T01:47:44;6.30;;;2.07;;
68858;SDS011;55864;49.238;8.092;2023-07-16T01:49:54;5.72;;;1.90;;
68858;SDS011;55864;49.238;8.092;2023-07-16T01:51:55;6.22;;;2.08;;
68858;SDS011;55864;49.238;8.092;2023-07-16T01:53:55;7.93;;;2.30;;
68858;SDS011;55864;49.238;8.092;2023-07-16T01:55:57;5.68;;;1.98;;
68858;SDS011;55864;49.238;8.092;2023-07-16T01:57:58;6.28;;;1.98;;
68858;SDS011;55864;49.238;8.092;2023-07-16T01:59:59;6.05;;;2.10;;
68858;SDS011;55864;49.238;8.092;2023-07-16T02:02:01;7.22;;;1.92;;
68858;SDS011;55864;49.238;8.092;2023-07-16T02:04:01;7.93;;;2.00;;
68858;SDS011;55864;49.238;8.092;2023-07-16T02:06:02;5.93;;;1.75;;
68858;SDS011;55864;49.238;8.092;2023-07-16T02:08:03;6.15;;;2.13;;
68858;SDS011;55864;49.238;8.092;2023-07-16T02:10:07;5.85;;;1.88;;
68858;SDS011;55864;49.238;8.092;2023-07-16T02:12:08;6.93;;;2.08;;
68858;SDS011;55864;49.238;8.092;2023-07-16T02:14:08;4.88;;;1.77;;
68858;SDS011;55864;49.238;8.092;2023-07-16T02:16:09;5.22;;;1.60;;
68858;SDS011;55864;49.238;8.092;2023-07-16T02:18:11;5.55;;;1.90;;
68858;SDS011;55864;49.238;8.092;2023-07-16T02:20:11;7.72;;;2.13;;
68858;SDS011;55864;49.238;8.092;2023-07-16T02:22:12;4.47;;;1.70;;
68858;SDS011;55864;49.238;8.092;2023-07-16T02:24:13;4.97;;;1.80;;
68858;SDS011;55864;49.238;8.092;2023-07-16T02:26:13;6.20;;;1.90;;
68858;SDS011;55864;49.238;8.092;2023-07-16T02:28:16;5.43;;;1.80;;
68858;SDS011;55864;49.238;8.092;2023-07-16T02:30:17;5.47;;;2.03;;
68858;SDS011;55864;49.238;8.092;2023-07-16T02:32:17;6.32;;;1.70;;
68858;SDS011;55864;49.238;8.092;2023-07-16T02:34:19;8.63;;;2.03;;
68858;SDS011;55864;49.238;8.092;2023-07-16T02:36:20;5.88;;;1.77;;
68858;SDS011;55864;49.238;8.092;2023-07-16T02:38:20;8.40;;;2.28;;
68858;SDS011;55864;49.238;8.092;2023-07-16T02:40:21;9.63;;;2.03;;
68858;SDS011;55864;49.238;8.092;2023-07-16T02:42:22;5.07;;;1.73;;
68858;SDS011;55864;49.238;8.092;2023-07-16T02:44:24;7.70;;;1.98;;
68858;SDS011;55864;49.238;8.092;2023-07-16T02:46:25;5.68;;;1.98;;
68858;SDS011;55864;49.238;8.092;2023-07-16T02:48:25;5.85;;;2.00;;
68858;SDS011;55864;49.238;8.092;2023-07-16T02:50:27;7.22;;;2.00;;
68858;SDS011;55864;49.238;8.092;2023-07-16T02:52:28;5.38;;;1.40;;
68858;SDS011;55864;49.238;8.092;2023-07-16T02:54:28;6.57;;;1.85;;
68858;SDS011;55864;49.238;8.092;2023-07-16T02:56:29;7.43;;;1.88;;
68858;SDS011;55864;49.238;8.092;2023-07-16T02:58:29;7.03;;;1.73;;
68858;SDS011;55864;49.238;8.092;2023-07-16T03:00:30;4.88;;;1.58;;
68858;SDS011;55864;49.238;8.092;2023-07-16T03:02:30;7.65;;;1.90;;
68858;SDS011;55864;49.238;8.092;2023-07-16T03:04:31;6.68;;;2.00;;
68858;SDS011;55864;49.238;8.092;2023-07-16T03:06:33;6.72;;;2.10;;
68858;SDS011;55864;49.238;8.092;2023-07-16T03:08:33;7.60;;;1.90;;
68858;SDS011;55864;49.238;8.092;2023-07-16T03:10:34;6.13;;;1.80;;
68858;SDS011;55864;49.238;8.092;2023-07-16T03:12:34;5.93;;;2.00;;
68858;SDS011;55864;49.238;8.092;2023-07-16T03:14:35;6.95;;;1.85;;
68858;SDS011;55864;49.238;8.092;2023-07-16T03:16:36;6.63;;;1.80;;
68858;SDS011;55864;49.238;8.092;2023-07-16T03:18:37;8.85;;;2.00;;
68858;SDS011;55864;49.238;8.092;2023-07-16T03:20:37;6.50;;;1.80;;
68858;SDS011;55864;49.238;8.092;2023-07-16T03:22:39;7.60;;;1.60;;
68858;SDS011;55864;49.238;8.092;2023-07-16T03:24:40;6.07;;;1.88;;
68858;SDS011;55864;49.238;8.092;2023-07-16T03:26:40;6.15;;;2.05;;
68858;SDS011;55864;49.238;8.092;2023-07-16T03:28:41;7.00;;;1.90;;
68858;SDS011;55864;49.238;8.092;2023-07-16T03:32:45;6.85;;;1.88;;
68858;SDS011;55864;49.238;8.092;2023-07-16T03:34:45;8.30;;;2.13;;
68858;SDS011;55864;49.238;8.092;2023-07-16T03:36:46;5.25;;;1.67;;
68858;SDS011;55864;49.238;8.092;2023-07-16T03:38:48;5.80;;;1.70;;
68858;SDS011;55864;49.238;8.092;2023-07-16T03:40:49;7.70;;;2.10;;
68858;SDS011;55864;49.238;8.092;2023-07-16T03:42:50;5.93;;;2.10;;
68858;SDS011;55864;49.238;8.092;2023-07-16T03:44:51;7.43;;;1.75;;
68858;SDS011;55864;49.238;8.092;2023-07-16T03:46:51;5.78;;;1.80;;
68858;SDS011;55864;49.238;8.092;2023-07-16T03:48:52;8.60;;;2.17;;
68858;SDS011;55864;49.238;8.092;2023-07-16T03:50:53;7.07;;;2.10;;
68858;SDS011;55864;49.238;8.092;2023-07-16T03:52:55;4.82;;;1.73;;
68858;SDS011;55864;49.238;8.092;2023-07-16T03:54:56;6.88;;;1.73;;
68858;SDS011;55864;49.238;8.092;2023-07-16T03:56:57;7.90;;;2.22;;
68858;SDS011;55864;49.238;8.092;2023-07-16T03:58:59;7.40;;;1.90;;
68858;SDS011;55864;49.238;8.092;2023-07-16T04:01:00;6.15;;;1.95;;
68858;SDS011;55864;49.238;8.092;2023-07-16T04:03:00;6.47;;;1.70;;
68858;SDS011;55864;49.238;8.092;2023-07-16T04:05:01;6.88;;;1.80;;
68858;SDS011;55864;49.238;8.092;2023-07-16T04:07:02;8.00;;;2.00;;
68858;SDS011;55864;49.238;8.092;2023-07-16T04:09:02;6.38;;;1.90;;
68858;SDS011;55864;49.238;8.092;2023-07-16T04:11:05;6.80;;;1.80;;
68858;SDS011;55864;49.238;8.092;2023-07-16T04:13:06;6.53;;;1.90;;
68858;SDS011;55864;49.238;8.092;2023-07-16T04:15:07;5.25;;;1.80;;
68858;SDS011;55864;49.238;8.092;2023-07-16T04:17:08;5.57;;;1.70;;
68858;SDS011;55864;49.238;8.092;2023-07-16T04:19:09;5.90;;;1.95;;
68858;SDS011;55864;49.238;8.092;2023-07-16T04:21:09;6.10;;;1.67;;
68858;SDS011;55864;49.238;8.092;2023-07-16T04:23:10;5.70;;;1.77;;
68858;SDS011;55864;49.238;8.092;2023-07-16T04:25:10;8.40;;;2.00;;
68858;SDS011;55864;49.238;8.092;2023-07-16T04:27:12;6.43;;;1.95;;
68858;SDS011;55864;49.238;8.092;2023-07-16T04:29:13;6.55;;;1.70;;
68858;SDS011;55864;49.238;8.092;2023-07-16T04:31:13;6.78;;;1.90;;
68858;SDS011;55864;49.238;8.092;2023-07-16T04:33:14;6.63;;;1.77;;
68858;SDS011;55864;49.238;8.092;2023-07-16T04:35:14;6.70;;;1.85;;
68858;SDS011;55864;49.238;8.092;2023-07-16T04:37:15;6.50;;;1.90;;
68858;SDS011;55864;49.238;8.092;2023-07-16T04:39:15;7.07;;;1.83;;
68858;SDS011;55864;49.238;8.092;2023-07-16T04:41:16;6.70;;;1.98;;
68858;SDS011;55864;49.238;8.092;2023-07-16T04:43:18;7.70;;;1.90;;
68858;SDS011;55864;49.238;8.092;2023-07-16T04:45:19;7.60;;;1.98;;
68858;SDS011;55864;49.238;8.092;2023-07-16T04:47:19;7.80;;;2.00;;
68858;SDS011;55864;49.238;8.092;2023-07-16T04:49:20;5.43;;;1.92;;
68858;SDS011;55864;49.238;8.092;2023-07-16T04:51:20;7.25;;;1.92;;
68858;SDS011;55864;49.238;8.092;2023-07-16T04:53:22;6.53;;;1.90;;
68858;SDS011;55864;49.238;8.092;2023-07-16T04:55:23;6.18;;;1.75;;
68858;SDS011;55864;49.238;8.092;2023-07-16T04:57:23;6.65;;;2.10;;
68858;SDS011;55864;49.238;8.092;2023-07-16T04:59:25;5.32;;;1.77;;
68858;SDS011;55864;49.238;8.092;2023-07-16T05:01:26;5.85;;;1.85;;
68858;SDS011;55864;49.238;8.092;2023-07-16T05:03:26;6.10;;;1.90;;
68858;SDS011;55864;49.238;8.092;2023-07-16T05:05:27;7.97;;;1.80;;
68858;SDS011;55864;49.238;8.092;2023-07-16T05:07:27;6.18;;;1.73;;
68858;SDS011;55864;49.238;8.092;2023-07-16T05:09:28;4.95;;;1.67;;
68858;SDS011;55864;49.238;8.092;2023-07-16T05:11:29;7.78;;;2.05;;
68858;SDS011;55864;49.238;8.092;2023-07-16T05:13:29;5.50;;;1.70;;
68858;SDS011;55864;49.238;8.092;2023-07-16T05:15:31;6.20;;;1.63;;
68858;SDS011;55864;49.238;8.092;2023-07-16T05:17:32;4.97;;;1.73;;
68858;SDS011;55864;49.238;8.092;2023-07-16T05:19:33;8.10;;;2.20;;
68858;SDS011;55864;49.238;8.092;2023-07-16T05:21:33;6.07;;;2.10;;
68858;SDS011;55864;49.238;8.092;2023-07-16T05:23:34;11.07;;;2.20;;
68858;SDS011;55864;49.238;8.092;2023-07-16T05:25:34;7.30;;;1.92;;
68858;SDS011;55864;49.238;8.092;2023-07-16T05:27:35;6.78;;;1.90;;
68858;SDS011;55864;49.238;8.092;2023-07-16T05:29:35;8.10;;;2.00;;
68858;SDS011;55864;49.238;8.092;2023-07-16T05:31:37;8.32;;;2.20;;
68858;SDS011;55864;49.238;8.092;2023-07-16T05:33:38;7.43;;;2.00;;
68858;SDS011;55864;49.238;8.092;2023-07-16T05:35:38;6.50;;;2.20;;
68858;SDS011;55864;49.238;8.092;2023-07-16T05:37:39;8.10;;;2.28;;
68858;SDS011;55864;49.238;8.092;2023-07-16T05:39:39;5.45;;;1.83;;
68858;SDS011;55864;49.238;8.092;2023-07-16T05:41:40;6.45;;;1.77;;
68858;SDS011;55864;49.238;8.092;2023-07-16T05:43:40;7.30;;;2.00;;
68858;SDS011;55864;49.238;8.092;2023-07-16T05:45:41;6.53;;;1.92;;
68858;SDS011;55864;49.238;8.092;2023-07-16T05:47:43;7.97;;;2.25;;
68858;SDS011;55864;49.238;8.092;2023-07-16T05:49:43;6.70;;;1.90;;
68858;SDS011;55864;49.238;8.092;2023-07-16T05:51:44;7.00;;;2.13;;
68858;SDS011;55864;49.238;8.092;2023-07-16T05:53:44;7.20;;;2.00;;
68858;SDS011;55864;49.238;8.092;2023-07-16T05:55:45;6.57;;;1.70;;
68858;SDS011;55864;49.238;8.092;2023-07-16T05:57:45;6.50;;;1.98;;
68858;SDS011;55864;49.238;8.092;2023-07-16T05:59:46;6.05;;;1.95;;
68858;SDS011;55864;49.238;8.092;2023-07-16T06:01:46;5.88;;;2.00;;
68858;SDS011;55864;49.238;8.092;2023-07-16T06:03:48;6.78;;;2.20;;
68858;SDS011;55864;49.238;8.092;2023-07-16T06:05:49;8.63;;;2.30;;
68858;SDS011;55864;49.238;8.092;2023-07-16T06:07:49;8.35;;;2.00;;
68858;SDS011;55864;49.238;8.092;2023-07-16T06:09:50;7.53;;;2.20;;
68858;SDS011;55864;49.238;8.092;2023-07-16T06:11:50;9.10;;;2.17;;
68858;SDS011;55864;49.238;8.092;2023-07-16T06:13:52;7.75;;;2.10;;
68858;SDS011;55864;49.238;8.092;2023-07-16T06:15:53;6.78;;;2.05;;
68858;SDS011;55864;49.238;8.092;2023-07-16T06:17:53;7.35;;;1.90;;
68858;SDS011;55864;49.238;8.092;2023-07-16T06:19:55;6.80;;;2.20;;
68858;SDS011;55864;49.238;8.092;2023-07-16T06:21:56;8.48;;;2.13;;
68858;SDS011;55864;49.238;8.092;2023-07-16T06:23:57;6.32;;;1.75;;
68858;SDS011;55864;49.238;8.092;2023-07-16T06:25:57;7.57;;;2.10;;
68858;SDS011;55864;49.238;8.092;2023-07-16T06:27:58;9.40;;;2.10;;
68858;SDS011;55864;49.238;8.092;2023-07-16T06:29:58;5.85;;;1.95;;
68858;SDS011;55864;49.238;8.092;2023-07-16T06:31:59;8.27;;;2.20;;
68858;SDS011;55864;49.238;8.092;2023-07-16T06:33:59;6.75;;;2.03;;
68858;SDS011;55864;49.238;8.092;2023-07-16T06:36:01;8.48;;;2.10;;
68858;SDS011;55864;49.238;8.092;2023-07-16T06:38:02;12.32;;;2.17;;
68858;SDS011;55864;49.238;8.092;2023-07-16T06:40:03;8.55;;;1.90;;
68858;SDS011;55864;49.238;8.092;2023-07-16T06:42:04;7.28;;;2.00;;
68858;SDS011;55864;49.238;8.092;2023-07-16T06:44:06;7.40;;;2.13;;
68858;SDS011;55864;49.238;8.092;2023-07-16T06:46:07;6.95;;;2.20;;
68858;SDS011;55864;49.238;8.092;2023-07-16T06:48:07;7.85;;;2.00;;
68858;SDS011;55864;49.238;8.092;2023-07-16T06:50:08;8.88;;;2.35;;
68858;SDS011;55864;49.238;8.092;2023-07-16T06:52:19;9.70;;;2.47;;
68858;SDS011;55864;49.238;8.092;2023-07-16T06:54:20;7.40;;;2.58;;
68858;SDS011;55864;49.238;8.092;2023-07-16T06:56:20;8.85;;;2.28;;
68858;SDS011;55864;49.238;8.092;2023-07-16T06:58:23;9.95;;;2.35;;
68858;SDS011;55864;49.238;8.092;2023-07-16T07:00:30;8.27;;;2.50;;
68858;SDS011;55864;49.238;8.092;2023-07-16T07:02:31;7.60;;;2.58;;
68858;SDS011;55864;49.238;8.092;2023-07-16T07:04:31;9.02;;;2.47;;
68858;SDS011;55864;49.238;8.092;2023-07-16T07:06:32;7.38;;;2.20;;
68858;SDS011;55864;49.238;8.092;2023-07-16T07:08:34;10.32;;;2.35;;
68858;SDS011;55864;49.238;8.092;2023-07-16T07:10:34;11.27;;;2.65;;
68858;SDS011;55864;49.238;8.092;2023-07-16T07:12:35;7.47;;;2.40;;
68858;SDS011;55864;49.238;8.092;2023-07-16T07:14:35;7.63;;;2.50;;
68858;SDS011;55864;49.238;8.092;2023-07-16T07:16:36;11.20;;;2.85;;
68858;SDS011;55864;49.238;8.092;2023-07-16T07:18:36;8.00;;;2.35;;
68858;SDS011;55864;49.238;8.092;2023-07-16T07:20:37;9.35;;;2.20;;
68858;SDS011;55864;49.238;8.092;2023-07-16T07:22:37;9.65;;;2.55;;
68858;SDS011;55864;49.238;8.092;2023-07-16T07:24:39;7.50;;;2.40;;
68858;SDS011;55864;49.238;8.092;2023-07-16T07:26:40;9.88;;;2.42;;
68858;SDS011;55864;49.238;8.092;2023-07-16T07:28:40;6.85;;;2.40;;
68858;SDS011;55864;49.238;8.092;2023-07-16T07:30:41;9.75;;;2.55;;
68858;SDS011;55864;49.238;8.092;2023-07-16T07:32:42;10.50;;;2.47;;
68858;SDS011;55864;49.238;8.092;2023-07-16T07:34:42;10.95;;;2.50;;
68858;SDS011;55864;49.238;8.092;2023-07-16T07:36:43;10.02;;;2.38;;
68858;SDS011;55864;49.238;8.092;2023-07-16T07:38:43;8.30;;;2.30;;
68858;SDS011;55864;49.238;8.092;2023-07-16T07:40:45;10.23;;;2.42;;
68858;SDS011;55864;49.238;8.092;2023-07-16T07:42:46;9.98;;;2.45;;
68858;SDS011;55864;49.238;8.092;2023-07-16T07:44:46;7.60;;;2.50;;
68858;SDS011;55864;49.238;8.092;2023-07-16T07:46:47;10.95;;;2.83;;
68858;SDS011;55864;49.238;8.092;2023-07-16T07:48:47;7.25;;;2.15;;
68858;SDS011;55864;49.238;8.092;2023-07-16T07:50:48;7.60;;;2.22;;
68858;SDS011;55864;49.238;8.092;2023-07-16T07:52:48;9.70;;;2.70;;
68858;SDS011;55864;49.238;8.092;2023-07-16T07:54:49;8.68;;;2.60;;
68858;SDS011;55864;49.238;8.092;2023-07-16T07:56:51;6.32;;;2.25;;
68858;SDS011;55864;49.238;8.092;2023-07-16T07:58:51;9.48;;;2.33;;
68858;SDS011;55864;49.238;8.092;2023-07-16T08:00:52;9.88;;;2.30;;
68858;SDS011;55864;49.238;8.092;2023-07-16T08:02:52;7.13;;;2.40;;
68858;SDS011;55864;49.238;8.092;2023-07-16T08:04:53;12.50;;;2.60;;
68858;SDS011;55864;49.238;8.092;2023-07-16T08:06:55;8.15;;;2.40;;
68858;SDS011;55864;49.238;8.092;2023-07-16T08:08:55;8.88;;;2.25;;
68858;SDS011;55864;49.238;8.092;2023-07-16T08:10:56;9.48;;;2.78;;
68858;SDS011;55864;49.238;8.092;2023-07-16T08:12:57;7.47;;;2.10;;
68858;SDS011;55864;49.238;8.092;2023-07-16T08:14:58;11.85;;;2.95;;
68858;SDS011;55864;49.238;8.092;2023-07-16T08:16:58;7.57;;;2.42;;
68858;SDS011;55864;49.238;8.092;2023-07-16T08:18:59;6.28;;;2.10;;
68858;SDS011;55864;49.238;8.092;2023-07-16T08:20:59;6.15;;;2.00;;
68858;SDS011;55864;49.238;8.092;2023-07-16T08:23:00;8.65;;;2.63;;
68858;SDS011;55864;49.238;8.092;2023-07-16T08:25:00;7.28;;;1.90;;
68858;SDS011;55864;49.238;8.092;2023-07-16T08:27:01;11.25;;;2.40;;
68858;SDS011;55864;49.238;8.092;2023-07-16T08:29:03;9.27;;;2.30;;
68858;SDS011;55864;49.238;8.092;2023-07-16T08:31:03;7.05;;;2.50;;
68858;SDS011;55864;49.238;8.092;2023-07-16T08:33:04;8.00;;;2.65;;
68858;SDS011;55864;49.238;8.092;2023-07-16T08:35:05;9.15;;;2.53;;
68858;SDS011;55864;49.238;8.092;2023-07-16T08:37:06;6.25;;;2.40;;
68858;SDS011;55864;49.238;8.092;2023-07-16T08:39:07;8.27;;;2.47;;
68858;SDS011;55864;49.238;8.092;2023-07-16T08:41:07;9.10;;;2.30;;
68858;SDS011;55864;49.238;8.092;2023-07-16T08:43:08;6.18;;;2.15;;
68858;SDS011;55864;49.238;8.092;2023-07-16T08:45:10;10.43;;;2.50;;
68858;SDS011;55864;49.238;8.092;2023-07-16T08:47:11;9.38;;;2.05;;
68858;SDS011;55864;49.238;8.092;2023-07-16T08:49:11;8.13;;;2.28;;
68858;SDS011;55864;49.238;8.092;2023-07-16T08:51:13;7.10;;;2.25;;
68858;SDS011;55864;49.238;8.092;2023-07-16T08:53:15;8.20;;;2.67;;
68858;SDS011;55864;49.238;8.092;2023-07-16T08:55:16;8.80;;;2.30;;
68858;SDS011;55864;49.238;8.092;2023-07-16T08:57:17;8.60;;;2.47;;
68858;SDS011;55864;49.238;8.092;2023-07-16T08:59:20;7.30;;;2.15;;
68858;SDS011;55864;49.238;8.092;2023-07-16T09:01:22;10.43;;;2.47;;
68858;SDS011;55864;49.238;8.092;2023-07-16T09:03:23;6.95;;;2.30;;
68858;SDS011;55864;49.238;8.092;2023-07-16T09:05:23;9.35;;;2.58;;
68858;SDS011;55864;49.238;8.092;2023-07-16T09:07:24;7.38;;;2.05;;
68858;SDS011;55864;49.238;8.092;2023-07-16T09:09:24;8.68;;;2.70;;
68858;SDS011;55864;49.238;8.092;2023-07-16T09:11:25;11.32;;;2.90;;
68858;SDS011;55864;49.238;8.092;2023-07-16T09:13:26;8.32;;;2.38;;
68858;SDS011;55864;49.238;8.092;2023-07-16T09:15:27;8.00;;;2.40;;
68858;SDS011;55864;49.238;8.092;2023-07-16T09:17:30;10.55;;;2.40;;
68858;SDS011;55864;49.238;8.092;2023-07-16T09:19:31;8.32;;;2.53;;
68858;SDS011;55864;49.238;8.092;2023-07-16T09:21:32;8.68;;;2.58;;
68858;SDS011;55864;49.238;8.092;2023-07-16T09:23:33;10.85;;;2.42;;
68858;SDS011;55864;49.238;8.092;2023-07-16T09:25:34;9.55;;;2.58;;
68858;SDS011;55864;49.238;8.092;2023-07-16T09:27:34;9.50;;;2.33;;
68858;SDS011;55864;49.238;8.092;2023-07-16T09:29:37;8.85;;;2.55;;
68858;SDS011;55864;49.238;8.092;2023-07-16T09:31:39;8.40;;;2.50;;
68858;SDS011;55864;49.238;8.092;2023-07-16T09:33:53;8.25;;;2.20;;
68858;SDS011;55864;49.238;8.092;2023-07-16T09:35:57;6.25;;;2.22;;
68858;SDS011;55864;49.238;8.092;2023-07-16T09:37:57;6.97;;;2.10;;
68858;SDS011;55864;49.238;8.092;2023-07-16T09:39:58;8.07;;;2.47;;
68858;SDS011;55864;49.238;8.092;2023-07-16T09:41:59;8.15;;;2.13;;
68858;SDS011;55864;49.238;8.092;2023-07-16T09:43:59;11.15;;;2.47;;
68858;SDS011;55864;49.238;8.092;2023-07-16T09:46:00;5.75;;;1.92;;
68858;SDS011;55864;49.238;8.092;2023-07-16T09:48:01;9.75;;;2.22;;
68858;SDS011;55864;49.238;8.092;2023-07-16T09:50:03;9.50;;;2.40;;
68858;SDS011;55864;49.238;8.092;2023-07-16T09:52:04;6.70;;;2.05;;
68858;SDS011;55864;49.238;8.092;2023-07-16T09:54:05;9.13;;;2.20;;
68858;SDS011;55864;49.238;8.092;2023-07-16T09:56:06;9.43;;;2.53;;
68858;SDS011;55864;49.238;8.092;2023-07-16T09:58:09;8.13;;;2.50;;
68858;SDS011;55864;49.238;8.092;2023-07-16T10:00:12;9.13;;;2.17;;
68858;SDS011;55864;49.238;8.092;2023-07-16T10:02:17;7.38;;;2.25;;
68858;SDS011;55864;49.238;8.092;2023-07-16T10:04:18;5.93;;;1.92;;
68858;SDS011;55864;49.238;8.092;2023-07-16T10:06:21;9.32;;;2.40;;
68858;SDS011;55864;49.238;8.092;2023-07-16T10:08:21;6.65;;;2.13;;
68858;SDS011;55864;49.238;8.092;2023-07-16T10:10:22;8.45;;;2.20;;
68858;SDS011;55864;49.238;8.092;2023-07-16T10:12:26;6.95;;;2.10;;
68858;SDS011;55864;49.238;8.092;2023-07-16T10:14:27;7.25;;;2.13;;
68858;SDS011;55864;49.238;8.092;2023-07-16T10:16:27;7.28;;;2.40;;
68858;SDS011;55864;49.238;8.092;2023-07-16T10:18:36;8.10;;;2.10;;
68858;SDS011;55864;49.238;8.092;2023-07-16T10:20:37;8.73;;;2.40;;
68858;SDS011;55864;49.238;8.092;2023-07-16T10:22:39;9.07;;;2.30;;
68858;SDS011;55864;49.238;8.092;2023-07-16T10:24:40;8.75;;;2.63;;
68858;SDS011;55864;49.238;8.092;2023-07-16T10:26:41;6.95;;;2.40;;
68858;SDS011;55864;49.238;8.092;2023-07-16T10:28:42;8.45;;;2.17;;
68858;SDS011;55864;49.238;8.092;2023-07-16T10:30:42;8.27;;;2.55;;
68858;SDS011;55864;49.238;8.092;2023-07-16T10:32:43;9.10;;;2.40;;
68858;SDS011;55864;49.238;8.092;2023-07-16T10:34:44;7.03;;;2.10;;
68858;SDS011;55864;49.238;8.092;2023-07-16T10:36:44;7.60;;;2.38;;
68858;SDS011;55864;49.238;8.092;2023-07-16T10:38:46;6.75;;;2.17;;
68858;SDS011;55864;49.238;8.092;2023-07-16T10:40:47;6.30;;;2.00;;
68858;SDS011;55864;49.238;8.092;2023-07-16T10:42:47;7.38;;;2.35;;
68858;SDS011;55864;49.238;8.092;2023-07-16T10:44:48;8.73;;;2.20;;
68858;SDS011;55864;49.238;8.092;2023-07-16T10:46:49;8.75;;;2.30;;
68858;SDS011;55864;49.238;8.092;2023-07-16T10:48:51;6.45;;;2.47;;
68858;SDS011;55864;49.238;8.092;2023-07-16T10:50:53;6.25;;;2.13;;
68858;SDS011;55864;49.238;8.092;2023-07-16T10:52:54;8.60;;;2.20;;
68858;SDS011;55864;49.238;8.092;2023-07-16T10:54:57;6.83;;;2.70;;
68858;SDS011;55864;49.238;8.092;2023-07-16T10:56:57;6.88;;;2.60;;
68858;SDS011;55864;49.238;8.092;2023-07-16T10:58:58;6.88;;;2.35;;
68858;SDS011;55864;49.238;8.092;2023-07-16T11:00:58;7.55;;;2.35;;
68858;SDS011;55864;49.238;8.092;2023-07-16T11:02:59;9.93;;;2.38;;
68858;SDS011;55864;49.238;8.092;2023-07-16T11:04:59;8.23;;;2.60;;
68858;SDS011;55864;49.238;8.092;2023-07-16T11:07:03;8.75;;;2.35;;
68858;SDS011;55864;49.238;8.092;2023-07-16T11:09:07;8.82;;;2.50;;
68858;SDS011;55864;49.238;8.092;2023-07-16T11:11:09;6.63;;;2.05;;
68858;SDS011;55864;49.238;8.092;2023-07-16T11:13:10;5.93;;;2.10;;
68858;SDS011;55864;49.238;8.092;2023-07-16T11:15:10;6.70;;;2.30;;
68858;SDS011;55864;49.238;8.092;2023-07-16T11:17:12;6.95;;;2.22;;
68858;SDS011;55864;49.238;8.092;2023-07-16T11:19:13;7.17;;;2.60;;
68858;SDS011;55864;49.238;8.092;2023-07-16T11:21:14;7.75;;;2.38;;
68858;SDS011;55864;49.238;8.092;2023-07-16T11:23:18;7.07;;;2.40;;
68858;SDS011;55864;49.238;8.092;2023-07-16T11:25:19;7.15;;;2.20;;
68858;SDS011;55864;49.238;8.092;2023-07-16T11:27:21;7.95;;;2.40;;
68858;SDS011;55864;49.238;8.092;2023-07-16T11:29:23;7.72;;;2.20;;
68858;SDS011;55864;49.238;8.092;2023-07-16T11:31:24;7.82;;;2.10;;
68858;SDS011;55864;49.238;8.092;2023-07-16T11:33:24;9.18;;;2.10;;
68858;SDS011;55864;49.238;8.092;2023-07-16T11:35:35;7.28;;;2.60;;
68858;SDS011;55864;49.238;8.092;2023-07-16T11:37:37;8.20;;;2.72;;
68858;SDS011;55864;49.238;8.092;2023-07-16T11:39:38;8.50;;;2.47;;
68858;SDS011;55864;49.238;8.092;2023-07-16T11:41:38;8.27;;;2.20;;
68858;SDS011;55864;49.238;8.092;2023-07-16T11:43:41;8.90;;;2.40;;
68858;SDS011;55864;49.238;8.092;2023-07-16T11:45:46;7.45;;;2.00;;
68858;SDS011;55864;49.238;8.092;2023-07-16T11:47:48;9.27;;;2.58;;
68858;SDS011;55864;49.238;8.092;2023-07-16T11:49:49;6.03;;;2.33;;
68858;SDS011;55864;49.238;8.092;2023-07-16T11:51:49;6.95;;;2.33;;
68858;SDS011;55864;49.238;8.092;2023-07-16T11:53:50;9.00;;;2.47;;
68858;SDS011;55864;49.238;8.092;2023-07-16T11:55:50;8.90;;;2.40;;
68858;SDS011;55864;49.238;8.092;2023-07-16T11:57:51;7.82;;;2.70;;
68858;SDS011;55864;49.238;8.092;2023-07-16T11:59:53;8.23;;;2.65;;
68858;SDS011;55864;49.238;8.092;2023-07-16T12:01:53;6.38;;;2.25;;
68858;SDS011;55864;49.238;8.092;2023-07-16T12:03:54;5.97;;;2.17;;
68858;SDS011;55864;49.238;8.092;2023-07-16T12:05:54;6.72;;;2.88;;
68858;SDS011;55864;49.238;8.092;2023-07-16T12:07:55;6.97;;;2.45;;
68858;SDS011;55864;49.238;8.092;2023-07-16T12:09:55;8.10;;;2.40;;
68858;SDS011;55864;49.238;8.092;2023-07-16T12:11:56;8.70;;;2.40;;
68858;SDS011;55864;49.238;8.092;2023-07-16T12:13:57;9.77;;;2.50;;